Time;durP1;ratioP1;P1;durP2;ratioP2;P2;SDS_P1;SDS_P2;PMS_P1;PMS_P2;Temp;Humidity;BMP_temperature;BMP_pressure;BME280_temperature;BME280_humidity;BME280_pressure;Samples;Min_cycle;Max_cycle;Signal;HPM_P1;HPM_P2
2022/09/17 00:00:14;;;;;;;7.38;2.75;;;;;;;10.01;100.00;101229.97;4952600;28;20134;-65
2022/09/17 00:02:42;;;;;;;9.73;1.92;;;;;;;10.00;100.00;101238.94;4952346;29;20446;-65
2022/09/17 00:05:08;;;;;;;6.15;2.08;;;;;;;9.95;100.00;101222.69;4952364;29;20042;-65
2022/09/17 00:07:34;;;;;;;4.25;1.75;;;;;;;10.06;100.00;101227.56;4952375;28;20027;-67
2022/09/17 00:09:59;;;;;;;4.43;1.50;;;;;;;10.10;100.00;101246.69;4952095;29;20035;-67
2022/09/17 00:12:24;;;;;;;18.08;4.90;;;;;;;10.13;100.00;101240.16;4951655;28;20043;-67
2022/09/17 00:14:50;;;;;;;11.10;2.58;;;;;;;10.16;100.00;101248.59;4952117;29;20035;-65
2022/09/17 00:17:15;;;;;;;8.80;2.25;;;;;;;10.10;100.00;101236.03;4951986;29;20027;-65
2022/09/17 00:19:41;;;;;;;15.80;4.82;;;;;;;10.14;100.00;101242.66;4952055;29;20063;-65
2022/09/17 00:22:06;;;;;;;15.40;1.85;;;;;;;10.22;100.00;101255.06;4951990;29;20034;-65
2022/09/17 00:24:31;;;;;;;6.80;1.83;;;;;;;10.25;100.00;101244.03;4951965;29;20034;-66
2022/09/17 00:26:57;;;;;;;10.13;2.13;;;;;;;10.27;100.00;101253.53;4951993;29;20043;-66
2022/09/17 00:29:23;;;;;;;5.60;1.77;;;;;;;10.26;100.00;101251.81;4951949;29;20463;-65
2022/09/17 00:31:49;;;;;;;9.88;1.85;;;;;;;10.31;100.00;101259.28;4951802;29;20089;-66
2022/09/17 00:34:14;;;;;;;4.45;1.15;;;;;;;10.31;100.00;101256.63;4951616;28;20495;-66
2022/09/17 00:36:40;;;;;;;8.23;1.38;;;;;;;10.28;100.00;101254.34;4951899;29;20372;-66
2022/09/17 00:39:07;;;;;;;7.85;2.33;;;;;;;10.29;100.00;101250.66;4951777;29;20997;-65
2022/09/17 00:41:34;;;;;;;8.27;2.00;;;;;;;10.32;100.00;101260.94;4951702;29;20082;-66
2022/09/17 00:44:21;;;;;;;8.77;1.60;;;;;;;10.25;100.00;101255.50;4951731;29;20410;-66
2022/09/17 00:46:48;;;;;;;3.90;1.67;;;;;;;10.31;100.00;101265.44;4933069;29;20032;-66
2022/09/17 00:49:22;;;;;;;12.15;2.63;;;;;;;10.34;100.00;101263.44;4933129;29;20039;-66
2022/09/17 00:52:11;;;;;;;10.23;2.40;;;;;;;10.39;100.00;101264.53;4951547;29;20085;-66
2022/09/17 00:54:38;;;;;;;7.47;1.25;;;;;;;10.38;100.00;101256.72;4951478;28;20027;-66
2022/09/17 00:57:04;;;;;;;7.78;1.55;;;;;;;10.41;100.00;101267.03;4951475;29;20387;-66
2022/09/17 00:59:30;;;;;;;9.50;1.67;;;;;;;10.42;100.00;101274.00;4951293;28;20027;-66
2022/09/17 01:01:55;;;;;;;4.28;1.27;;;;;;;10.43;100.00;101276.50;4951466;29;20144;-66
2022/09/17 01:04:24;;;;;;;8.52;1.50;;;;;;;10.44;100.00;101266.66;4934239;29;20162;-66
2022/09/17 01:07:14;;;;;;;9.43;2.25;;;;;;;10.41;100.00;101267.03;4951252;29;20034;-67
2022/09/17 01:10:10;;;;;;;3.25;1.33;;;;;;;10.47;100.00;101274.28;4950940;29;20054;-67
2022/09/17 01:12:54;;;;;;;13.93;2.72;;;;;;;10.44;100.00;101272.81;4951199;29;20054;-66
2022/09/17 01:15:34;;;;;;;5.20;1.23;;;;;;;10.45;100.00;101276.28;4951126;29;20066;-67
2022/09/17 01:18:11;;;;;;;6.68;1.98;;;;;;;10.44;100.00;101279.97;4950918;28;20051;-67
2022/09/17 01:21:13;;;;;;;7.80;1.35;;;;;;;10.42;100.00;101282.81;4951073;29;20042;-66
2022/09/17 01:24:20;;;;;;;6.05;1.20;;;;;;;10.45;99.84;101284.28;4932039;29;20032;-67
2022/09/17 01:27:27;;;;;;;8.10;2.40;;;;;;;10.45;99.79;101286.97;4891357;29;20035;-67
2022/09/17 01:30:13;;;;;;;12.05;2.97;;;;;;;10.47;99.89;101292.94;4891324;29;20065;-67
2022/09/17 01:32:45;;;;;;;4.68;1.02;;;;;;;10.44;99.80;101286.13;4943939;29;20047;-67
2022/09/17 01:35:18;;;;;;;;;;;;;;;10.45;99.79;101287.81;4951361;29;20479;-66
2022/09/17 01:38:02;;;;;;;6.38;1.40;;;;;;;10.42;99.51;101296.16;4950780;29;19914;-67
2022/09/17 01:40:59;;;;;;;5.63;1.27;;;;;;;10.40;99.57;101289.34;4950872;29;20094;-67
2022/09/17 01:43:40;;;;;;;11.68;3.10;;;;;;;10.38;99.66;101299.41;4950638;29;20027;-66
2022/09/17 01:46:13;;;;;;;4.30;1.88;;;;;;;10.37;99.81;101295.06;4950732;29;20027;-66
2022/09/17 01:48:44;;;;;;;9.27;1.95;;;;;;;10.36;99.63;101298.75;4951105;28;20102;-73
2022/09/17 01:51:23;;;;;;;8.35;1.20;;;;;;;10.34;99.68;101298.09;4950905;28;20031;-73
2022/09/17 01:54:11;;;;;;;11.70;3.28;;;;;;;10.33;99.85;101302.59;4950777;28;20483;-72
2022/09/17 01:56:48;;;;;;;7.32;2.63;;;;;;;10.29;100.00;101298.63;4950790;28;20031;-72
2022/09/17 01:59:21;;;;;;;7.38;1.42;;;;;;;10.27;99.70;101300.63;4950677;29;20126;-72
2022/09/17 02:01:52;;;;;;;6.90;1.27;;;;;;;10.21;99.45;101290.69;4950636;29;20023;-73
2022/09/17 02:04:35;;;;;;;5.17;1.30;;;;;;;10.28;100.00;101295.16;4950827;29;20063;-72
2022/09/17 02:07:13;;;;;;;10.85;1.80;;;;;;;10.29;99.77;101288.78;4950684;29;20047;-73
2022/09/17 02:09:58;;;;;;;9.23;1.90;;;;;;;10.28;99.81;101297.81;4950283;29;20035;-72
2022/09/17 02:12:30;;;;;;;8.23;1.13;;;;;;;10.28;99.75;101310.31;4950681;29;20030;-72
2022/09/17 02:15:00;;;;;;;8.20;2.33;;;;;;;10.23;99.91;101307.34;4950602;29;20041;-72
2022/09/17 02:17:34;;;;;;;7.07;1.60;;;;;;;10.26;99.86;101310.47;4950489;29;20483;-72
2022/09/17 02:20:00;;;;;;;9.95;1.50;;;;;;;10.24;99.42;101303.66;4950214;29;20109;-72
2022/09/17 02:22:48;;;;;;;6.53;2.10;;;;;;;10.24;99.63;101309.84;4950499;29;20436;-72
2022/09/17 02:25:27;;;;;;;7.57;2.10;;;;;;;10.23;99.86;101302.00;4950522;28;20424;-72
2022/09/17 02:28:13;;;;;;;7.32;1.50;;;;;;;10.29;100.00;101309.31;4950529;28;20062;-72
2022/09/17 02:30:39;;;;;;;5.07;1.50;;;;;;;10.25;100.00;101300.81;4950453;29;20035;-72
2022/09/17 02:33:08;;;;;;;6.78;1.42;;;;;;;10.29;100.00;101304.78;4933306;29;20039;-72
2022/09/17 02:35:35;;;;;;;9.05;2.05;;;;;;;10.29;100.00;101304.78;4951671;28;20113;-72
2022/09/17 02:38:00;;;;;;;7.68;1.25;;;;;;;10.24;100.00;101307.19;4953766;29;20106;-72
2022/09/17 02:40:30;;;;;;;12.88;2.55;;;;;;;10.27;100.00;101320.16;4953930;29;20062;-72
2022/09/17 02:43:09;;;;;;;8.35;1.52;;;;;;;10.22;100.00;101313.69;4953903;28;20042;-73
2022/09/17 02:46:05;;;;;;;5.53;1.23;;;;;;;10.22;100.00;101313.69;4953853;29;20027;-72
2022/09/17 02:48:46;;;;;;;11.95;3.13;;;;;;;10.21;100.00;101315.50;4953934;29;20070;-73
2022/09/17 02:51:32;;;;;;;6.82;2.03;;;;;;;10.21;100.00;101320.84;4953754;29;20062;-67
2022/09/17 02:54:04;;;;;;;6.47;2.15;;;;;;;10.21;100.00;101322.69;4953831;29;20027;-67
2022/09/17 02:56:56;;;;;;;11.70;3.08;;;;;;;10.23;100.00;101320.69;4953719;29;20035;-67
2022/09/17 02:59:27;;;;;;;8.80;2.80;;;;;;;10.21;100.00;101317.34;4953518;29;20450;-67
2022/09/17 03:01:59;;;;;;;12.32;1.25;;;;;;;10.22;100.00;101322.53;4936349;29;20078;-67
2022/09/17 03:04:28;;;;;;;9.77;1.42;;;;;;;10.23;100.00;101313.50;4953525;29;20039;-67
2022/09/17 03:06:54;;;;;;;7.28;1.08;;;;;;;10.25;100.00;101314.16;4953475;29;20026;-67
2022/09/17 03:09:20;;;;;;;8.38;2.35;;;;;;;10.27;100.00;101308.63;4953227;29;20126;-67
2022/09/17 03:11:45;;;;;;;10.15;2.78;;;;;;;10.26;100.00;101306.97;4953447;29;20146;-67
2022/09/17 03:14:11;;;;;;;5.78;1.05;;;;;;;10.31;100.00;101313.44;4935722;29;20027;-67
2022/09/17 03:16:36;;;;;;;5.45;1.40;;;;;;;10.33;100.00;101312.44;4953219;29;20079;-67
2022/09/17 03:19:02;;;;;;;7.80;1.20;;;;;;;10.34;100.00;101319.41;4953181;29;20055;-67
2022/09/17 03:21:27;;;;;;;10.32;1.63;;;;;;;10.30;100.00;101310.97;4953268;29;20031;-66
2022/09/17 03:23:53;;;;;;;10.18;2.63;;;;;;;10.34;100.00;101319.41;4953186;29;20024;-67
2022/09/17 03:26:18;;;;;;;7.50;1.15;;;;;;;10.33;100.00;101320.44;4953136;29;20506;-67
2022/09/17 03:28:43;;;;;;;8.32;3.25;;;;;;;10.27;100.00;101312.16;4953135;28;20035;-67
2022/09/17 03:31:09;;;;;;;3.22;1.48;;;;;;;10.27;100.00;101314.84;4953073;29;20533;-67
2022/09/17 03:33:34;;;;;;;5.13;0.90;;;;;;;10.24;100.00;101314.31;4952996;29;20475;-67
2022/09/17 03:36:00;;;;;;;8.68;1.92;;;;;;;10.26;99.75;101314.97;4952831;29;20509;-67
2022/09/17 03:38:25;;;;;;;11.73;1.73;;;;;;;10.27;99.62;101320.16;4952897;29;20031;-67
2022/09/17 03:41:01;;;;;;;8.77;1.50;;;;;;;10.33;99.46;101320.44;4944781;29;20035;-66
2022/09/17 03:43:27;;;;;;;5.63;1.30;;;;;;;10.33;99.49;101305.28;4952417;28;20116;-67
2022/09/17 03:45:53;;;;;;;13.40;1.92;;;;;;;10.36;98.99;101306.75;4952770;28;20027;-66
2022/09/17 03:48:18;;;;;;;4.22;1.33;;;;;;;10.36;99.36;101302.22;4951794;28;20027;-67
2022/09/17 03:50:44;;;;;;;3.85;0.95;;;;;;;10.34;98.78;101292.75;4952682;28;20031;-67
2022/09/17 03:53:10;;;;;;;3.72;0.77;;;;;;;10.36;98.57;101307.56;4952727;28;20032;-67
2022/09/17 03:55:37;;;;;;;3.25;1.40;;;;;;;10.35;98.05;101313.91;4952820;28;20138;-66
2022/09/17 03:58:03;;;;;;;8.52;0.98;;;;;;;10.36;97.77;101317.41;4952401;28;20055;-67
2022/09/17 04:00:28;;;;;;;4.45;1.17;;;;;;;10.29;97.80;101304.78;4952478;29;20781;-66
2022/09/17 04:02:53;;;;;;;6.68;1.60;;;;;;;10.36;97.38;101336.91;4952413;29;20114;-72
2022/09/17 04:05:19;;;;;;;8.30;1.27;;;;;;;10.37;97.71;101353.72;4952469;28;20414;-73
2022/09/17 04:07:44;;;;;;;5.85;1.40;;;;;;;10.35;99.57;101351.25;4952099;28;20179;-72
2022/09/17 04:10:09;;;;;;;6.30;2.03;;;;;;;10.31;99.54;101344.63;4934813;29;20059;-72
2022/09/17 04:12:35;;;;;;;8.20;1.83;;;;;;;10.24;100.00;101331.16;4951983;29;20059;-72
2022/09/17 04:15:00;;;;;;;1.80;1.20;;;;;;;10.18;100.00;101331.06;4952141;28;20053;-72
2022/09/17 04:17:26;;;;;;;7.30;1.27;;;;;;;10.13;100.00;101333.44;4951921;29;20035;-71
2022/09/17 04:19:52;;;;;;;3.25;1.75;;;;;;;10.08;100.00;101328.66;4952002;28;20503;-72
2022/09/17 04:22:17;;;;;;;7.97;1.48;;;;;;;10.05;100.00;101335.16;4952151;28;20039;-72
2022/09/17 04:24:43;;;;;;;4.18;1.52;;;;;;;10.00;100.00;101334.88;4951993;29;20038;-72
2022/09/17 04:27:08;;;;;;;6.07;0.98;;;;;;;9.95;100.00;101331.94;4952143;29;20122;-72
2022/09/17 04:29:33;;;;;;;9.25;1.05;;;;;;;9.94;100.00;101340.13;4951980;29;20054;-73
2022/09/17 04:31:59;;;;;;;7.07;1.13;;;;;;;9.91;100.00;101343.16;4951843;29;20094;-73
2022/09/17 04:34:24;;;;;;;6.97;1.00;;;;;;;9.87;100.00;101342.66;4951696;29;20031;-73
2022/09/17 04:36:50;;;;;;;9.05;1.50;;;;;;;9.83;100.00;101339.53;4951848;29;20125;-73
2022/09/17 04:39:16;;;;;;;5.78;1.25;;;;;;;9.85;100.00;101344.66;4951747;28;20074;-73
2022/09/17 04:41:41;;;;;;;6.50;1.65;;;;;;;9.83;100.00;101341.38;4951408;29;20039;-72
2022/09/17 04:44:06;;;;;;;10.63;2.50;;;;;;;9.84;100.00;101340.34;4951346;29;20558;-72
2022/09/17 04:46:32;;;;;;;9.60;1.73;;;;;;;9.81;100.00;101328.22;4951657;29;20126;-72
2022/09/17 04:48:57;;;;;;;9.20;1.85;;;;;;;9.80;100.00;101325.75;4951652;29;20407;-73
2022/09/17 04:51:23;;;;;;;5.13;1.17;;;;;;;9.80;100.00;101341.75;4951598;29;20540;-72
2022/09/17 04:53:48;;;;;;;6.97;1.75;;;;;;;9.76;100.00;101341.25;4951683;29;20043;-73
2022/09/17 04:56:14;;;;;;;4.88;2.17;;;;;;;9.74;100.00;101350.44;4951749;29;20038;-73
2022/09/17 04:58:39;;;;;;;8.18;1.35;;;;;;;9.72;100.00;101350.63;4951320;28;20043;-72
2022/09/17 05:01:05;;;;;;;7.05;1.58;;;;;;;9.69;100.00;101339.47;4934204;29;20027;-72
2022/09/17 05:03:30;;;;;;;7.32;1.83;;;;;;;9.66;100.00;101343.31;4951146;29;20125;-73
2022/09/17 05:05:55;;;;;;;10.68;1.73;;;;;;;9.64;100.00;101353.31;4951474;29;20024;-72
2022/09/17 05:08:22;;;;;;;10.07;2.17;;;;;;;9.61;100.00;101351.84;4951098;28;20054;-73
2022/09/17 05:10:50;;;;;;;4.53;1.00;;;;;;;9.54;100.00;101337.59;4951344;29;20502;-72
2022/09/17 05:13:15;;;;;;;6.43;1.40;;;;;;;9.57;100.00;101339.91;4951203;29;20711;-72
2022/09/17 05:15:41;;;;;;;9.80;2.67;;;;;;;9.56;100.00;101345.41;4951242;28;20158;-72
2022/09/17 05:18:06;;;;;;;4.30;1.73;;;;;;;9.51;100.00;101347.78;4950975;29;20952;-72
2022/09/17 05:20:32;;;;;;;11.05;1.58;;;;;;;9.53;100.00;101359.91;4951115;29;20042;-72
2022/09/17 05:22:57;;;;;;;6.20;1.13;;;;;;;9.51;100.00;101356.59;4950732;29;20074;-72
2022/09/17 05:25:23;;;;;;;4.28;1.23;;;;;;;9.49;100.00;101363.13;4950856;28;20062;-72
2022/09/17 05:27:50;;;;;;;6.85;1.38;;;;;;;9.48;100.00;101358.78;4951056;28;20388;-72
2022/09/17 05:30:15;;;;;;;6.53;1.42;;;;;;;9.47;100.00;101368.59;4951141;29;20019;-72
2022/09/17 05:32:41;;;;;;;9.07;2.05;;;;;;;9.46;100.00;101371.44;4950821;29;20399;-72
2022/09/17 05:35:07;;;;;;;6.85;1.70;;;;;;;9.43;100.00;101376.13;4950909;29;20093;-73
2022/09/17 05:37:33;;;;;;;12.68;1.30;;;;;;;9.43;100.00;101378.78;4950824;29;20027;-73
2022/09/17 05:39:58;;;;;;;9.13;1.70;;;;;;;9.44;100.00;101371.63;4933448;28;20039;-73
2022/09/17 05:42:24;;;;;;;7.20;1.40;;;;;;;9.36;100.00;101363.69;4950864;29;20035;-73
2022/09/17 05:44:49;;;;;;;5.18;1.17;;;;;;;9.36;100.00;101375.16;4950655;29;20032;-73
2022/09/17 05:47:14;;;;;;;6.18;1.48;;;;;;;9.36;100.00;101374.34;4950785;29;20106;-73
2022/09/17 05:49:40;;;;;;;10.82;1.17;;;;;;;9.40;100.00;101378.28;4933471;29;20035;-72
2022/09/17 05:52:06;;;;;;;8.55;1.92;;;;;;;9.41;100.00;101385.28;4950841;29;20058;-73
2022/09/17 05:54:31;;;;;;;4.60;0.90;;;;;;;9.39;100.00;101373.97;4950806;28;20928;-73
2022/09/17 05:56:56;;;;;;;5.32;1.90;;;;;;;9.43;100.00;101370.81;4950999;29;20372;-72
2022/09/17 05:59:22;;;;;;;6.18;1.77;;;;;;;9.46;100.00;101384.75;4950679;29;20031;-73
2022/09/17 06:01:47;;;;;;;7.97;1.55;;;;;;;9.46;100.00;101377.59;4950550;29;20403;-73
2022/09/17 06:04:13;;;;;;;4.32;1.13;;;;;;;9.48;100.00;101380.06;4950557;29;20077;-73
2022/09/17 06:06:40;;;;;;;4.85;1.38;;;;;;;9.52;100.00;101394.72;4950672;28;20383;-73
2022/09/17 06:09:06;;;;;;;10.45;2.33;;;;;;;9.60;100.00;101390.16;4950343;29;20031;-73
2022/09/17 06:11:32;;;;;;;5.50;1.63;;;;;;;9.66;100.00;101404.59;4938561;28;20032;-72
2022/09/17 06:13:57;;;;;;;8.80;2.08;;;;;;;9.70;100.00;101405.91;4935798;29;20098;-72
2022/09/17 06:16:23;;;;;;;7.80;1.52;;;;;;;9.71;100.00;101404.06;4936039;29;20040;-73
2022/09/17 06:18:49;;;;;;;5.53;1.45;;;;;;;9.75;100.00;101406.22;4954104;28;20087;-72
2022/09/17 06:21:18;;;;;;;9.07;3.33;;;;;;;9.78;100.00;101405.03;4954109;28;20039;-73
2022/09/17 06:23:44;;;;;;;4.93;1.40;;;;;;;9.84;100.00;101409.63;4954201;28;20031;-73
2022/09/17 06:26:10;;;;;;;11.90;2.13;;;;;;;9.90;100.00;101419.56;4954108;29;20058;-73
2022/09/17 06:28:36;;;;;;;11.75;1.98;;;;;;;9.98;100.00;101411.53;4954312;29;20038;-73
2022/09/17 06:31:03;;;;;;;5.25;1.77;;;;;;;10.06;100.00;101416.78;4954075;29;20027;-73
2022/09/17 06:33:30;;;;;;;10.65;1.88;;;;;;;10.10;100.00;101407.41;4954011;29;20035;-73
2022/09/17 06:36:00;;;;;;;7.57;2.33;;;;;;;10.17;100.00;101396.06;4953915;28;20395;-70
2022/09/17 06:38:27;;;;;;;7.00;1.58;;;;;;;10.22;100.00;101401.66;4953914;28;20036;-70
2022/09/17 06:40:52;;;;;;;6.72;1.75;;;;;;;10.23;99.78;101405.97;4954043;28;20031;-70
2022/09/17 06:43:18;;;;;;;7.75;1.77;;;;;;;10.22;99.96;101396.34;4954134;29;20035;-73
2022/09/17 06:45:50;;;;;;;5.00;1.67;;;;;;;10.28;98.68;101396.47;4953940;28;20031;-72
2022/09/17 06:48:16;;;;;;;8.00;1.63;;;;;;;10.34;98.34;101399.41;4935391;29;20507;-73
2022/09/17 06:50:41;;;;;;;6.78;2.53;;;;;;;10.38;97.51;101393.53;4935347;29;20027;-72
2022/09/17 06:53:08;;;;;;;5.72;1.70;;;;;;;10.41;96.21;101392.34;4935330;29;20042;-73
2022/09/17 06:55:34;;;;;;;4.03;1.50;;;;;;;10.48;96.03;101403.94;4935116;29;20423;-72
2022/09/17 06:57:59;;;;;;;7.43;1.08;;;;;;;10.47;96.18;101408.44;4953394;28;20114;-72
2022/09/17 07:00:25;;;;;;;3.95;1.40;;;;;;;10.49;95.32;101402.94;4953591;29;20163;-72
2022/09/17 07:02:58;;;;;;;7.75;1.77;;;;;;;10.55;94.41;101404.03;4953594;28;20073;-70
2022/09/17 07:05:24;;;;;;;7.82;1.88;;;;;;;10.60;94.57;101409.66;4953449;29;20368;-71
2022/09/17 07:07:50;;;;;;;2.55;1.02;;;;;;;10.60;94.02;101406.97;4952942;29;20505;-70
2022/09/17 07:10:16;;;;;;;8.52;1.10;;;;;;;10.62;93.80;101411.13;4952079;28;20368;-73
2022/09/17 07:12:42;;;;;;;6.63;0.80;;;;;;;10.70;94.46;101415.53;4918021;29;20044;-71
2022/09/17 07:15:12;;;;;;;3.25;0.85;;;;;;;10.67;93.54;101403.41;4934879;29;20061;-71
2022/09/17 07:17:39;;;;;;;4.70;0.85;;;;;;;10.74;93.20;101412.34;4952994;28;20066;-71
2022/09/17 07:20:06;;;;;;;4.60;0.80;;;;;;;10.79;92.26;101421.59;4953050;29;20027;-70
2022/09/17 07:22:31;;;;;;;2.67;0.77;;;;;;;10.82;90.91;101418.56;4951895;28;20042;-70
2022/09/17 07:24:57;;;;;;;4.93;1.45;;;;;;;10.89;92.35;101427.50;4952812;28;20066;-71
2022/09/17 07:27:22;;;;;;;4.72;0.85;;;;;;;10.93;91.01;101424.28;4952850;28;20039;-71
2022/09/17 07:29:47;;;;;;;4.88;1.05;;;;;;;10.97;90.96;101422.06;4952682;29;20038;-71
2022/09/17 07:32:13;;;;;;;2.33;0.98;;;;;;;10.96;91.89;101407.91;4952756;28;20031;-72
2022/09/17 07:34:38;;;;;;;6.95;1.20;;;;;;;11.01;91.46;101407.34;4952786;28;20842;-71
2022/09/17 07:37:04;;;;;;;3.58;1.08;;;;;;;11.12;92.43;101412.19;4952900;28;20035;-71
2022/09/17 07:39:29;;;;;;;4.15;1.25;;;;;;;11.19;91.46;101412.31;4952745;29;20035;-71
2022/09/17 07:41:55;;;;;;;5.30;0.57;;;;;;;11.24;90.70;101409.91;4952871;29;20479;-71
2022/09/17 07:44:21;;;;;;;3.65;0.70;;;;;;;11.27;90.01;101414.84;4935249;29;20094;-71
2022/09/17 07:46:46;;;;;;;4.22;1.20;;;;;;;11.31;89.68;101420.63;4952546;28;20534;-71
2022/09/17 07:49:12;;;;;;;4.07;1.40;;;;;;;11.36;90.14;101418.25;4952789;28;20033;-69
2022/09/17 07:51:37;;;;;;;3.00;0.82;;;;;;;11.48;89.01;101422.09;4942782;29;20031;-73
2022/09/17 07:54:03;;;;;;;0.57;0.57;;;;;;;11.56;87.71;101421.16;4938350;29;20031;-74
2022/09/17 07:56:28;;;;;;;1.45;0.80;;;;;;;11.61;87.64;101418.72;4934397;29;20028;-71
2022/09/17 07:58:54;;;;;;;1.85;1.67;;;;;;;11.61;86.91;101413.38;4934072;29;20498;-71
2022/09/17 08:01:21;;;;;;;2.42;1.25;;;;;;;11.70;87.92;101414.91;4933916;29;20353;-71
2022/09/17 08:03:49;;;;;;;5.72;0.80;;;;;;;11.81;86.63;101417.06;4952367;29;20037;-71
2022/09/17 08:06:18;;;;;;;6.47;0.60;;;;;;;11.97;86.85;101416.03;4952277;29;20042;-70
2022/09/17 08:08:44;;;;;;;4.93;0.85;;;;;;;12.18;86.00;101419.69;4952065;29;20031;-70
2022/09/17 08:11:11;;;;;;;2.72;0.68;;;;;;;12.27;85.38;101427.38;4952208;29;20031;-70
2022/09/17 08:13:37;;;;;;;5.05;1.55;;;;;;;12.21;85.42;101443.41;4951951;29;20042;-71
2022/09/17 08:16:05;;;;;;;4.03;1.00;;;;;;;12.07;86.89;101445.09;4951917;29;20023;-71
2022/09/17 08:18:32;;;;;;;2.53;0.90;;;;;;;11.90;88.36;101441.88;4951947;29;20513;-70
2022/09/17 08:20:58;;;;;;;2.75;0.90;;;;;;;11.79;91.33;101445.84;4952073;29;20082;-71
2022/09/17 08:23:25;;;;;;;5.38;1.25;;;;;;;11.71;91.72;101439.78;4952034;29;20031;-71
2022/09/17 08:25:52;;;;;;;6.00;1.77;;;;;;;11.64;92.11;101431.72;4951884;28;20397;-70
2022/09/17 08:28:17;;;;;;;3.65;0.70;;;;;;;11.63;92.36;101435.38;4951795;29;20106;-66
2022/09/17 08:30:43;;;;;;;3.47;0.70;;;;;;;11.71;91.62;101437.97;4951761;29;20114;-65
2022/09/17 08:33:08;;;;;;;2.85;0.57;;;;;;;11.82;93.12;101437.44;4951440;28;20122;-66
2022/09/17 08:35:33;;;;;;;5.15;1.30;;;;;;;11.95;93.46;101435.97;4951714;29;20382;-65
2022/09/17 08:37:59;;;;;;;8.27;1.75;;;;;;;12.08;92.96;101433.41;4951284;29;20031;-65
2022/09/17 08:40:27;;;;;;;2.65;1.08;;;;;;;12.19;92.39;101432.88;4951804;29;20070;-65
2022/09/17 08:43:01;;;;;;;6.38;0.60;;;;;;;12.34;93.01;101431.94;4951807;29;20078;-65
2022/09/17 08:45:27;;;;;;;6.93;1.55;;;;;;;12.42;90.28;101429.16;4932945;29;20042;-65
2022/09/17 08:48:01;;;;;;;2.55;1.08;;;;;;;12.47;88.71;101429.38;4933033;29;20028;-65
2022/09/17 08:50:32;;;;;;;8.25;1.00;;;;;;;12.54;89.33;101424.91;4951112;29;20043;-65
2022/09/17 08:53:16;;;;;;;3.83;1.42;;;;;;;12.72;89.88;101419.88;4951285;29;20143;-66
2022/09/17 08:55:43;;;;;;;1.35;1.05;;;;;;;12.84;87.57;101425.53;4951332;29;20164;-65
2022/09/17 08:58:46;;;;;;;7.45;1.55;;;;;;;12.99;86.56;101428.03;4951289;28;20038;-65
2022/09/17 09:01:11;;;;;;;10.05;1.75;;;;;;;13.18;85.06;101420.31;4934139;29;20945;-64
2022/09/17 09:03:47;;;;;;;3.07;1.37;;;;;;;13.38;83.32;101421.25;4951538;29;20034;-65
2022/09/17 09:06:14;;;;;;;4.28;1.13;;;;;;;13.48;80.91;101424.38;4932905;29;20275;-64
2022/09/17 09:09:06;;;;;;;2.30;0.50;;;;;;;13.60;80.57;101424.63;4932763;29;20123;-64
2022/09/17 09:11:32;;;;;;;1.80;0.93;;;;;;;13.78;78.16;101424.00;4937434;29;20075;-65
2022/09/17 09:14:11;;;;;;;2.17;0.60;;;;;;;13.70;77.81;101429.56;4950909;28;20118;-64
2022/09/17 09:16:40;;;;;;;6.55;0.85;;;;;;;13.51;77.64;101434.69;4951446;28;20110;-64
2022/09/17 09:19:36;;;;;;;3.70;0.80;;;;;;;13.40;80.68;101435.28;4951319;28;20078;-65
2022/09/17 09:22:21;;;;;;;4.80;0.82;;;;;;;13.35;78.97;101432.38;4932735;29;20038;-65
2022/09/17 09:25:15;;;;;;;4.57;1.33;;;;;;;13.39;81.26;101428.28;4932732;29;20023;-64
2022/09/17 09:27:48;;;;;;;5.15;1.95;;;;;;;13.41;78.05;101430.72;4932804;29;20536;-65
2022/09/17 09:30:15;;;;;;;7.70;0.90;;;;;;;13.27;78.72;101435.22;4932752;29;20027;-65
2022/09/17 09:32:49;;;;;;;2.40;1.13;;;;;;;13.13;79.72;101437.00;4932651;29;20035;-65
2022/09/17 09:35:18;;;;;;;5.03;0.95;;;;;;;13.05;79.36;101440.66;4932553;29;20637;-64
2022/09/17 09:37:53;;;;;;;4.07;0.60;;;;;;;13.27;78.68;101443.25;4950845;29;20106;-65
2022/09/17 09:40:39;;;;;;;0.93;0.82;;;;;;;13.48;78.37;101439.63;4950890;29;20506;-64
2022/09/17 09:43:20;;;;;;;5.28;0.95;;;;;;;13.63;76.79;101439.47;4950840;29;20023;-65
2022/09/17 09:45:48;;;;;;;2.50;1.13;;;;;;;13.59;73.06;101453.25;4949796;29;20042;-65
2022/09/17 09:48:31;;;;;;;2.65;0.50;;;;;;;13.49;74.56;101462.69;4950712;29;20038;-64
2022/09/17 09:51:19;;;;;;;2.72;1.50;;;;;;;13.48;76.59;101459.19;4950585;29;20430;-65
2022/09/17 09:53:44;;;;;;;6.38;1.55;;;;;;;13.46;74.88;101455.06;4950536;29;20035;-65
2022/09/17 09:56:42;;;;;;;0.97;0.60;;;;;;;13.40;74.97;101453.19;4950662;29;20027;-64
2022/09/17 09:59:10;;;;;;;6.45;1.05;;;;;;;13.29;74.35;101455.44;4950580;29;20302;-64
2022/09/17 10:01:40;;;;;;;2.17;0.57;;;;;;;13.34;74.85;101463.69;4950643;29;20027;-64
2022/09/17 10:04:17;;;;;;;3.95;0.55;;;;;;;13.47;74.56;101446.03;4950622;29;20039;-65
2022/09/17 10:06:42;;;;;;;2.50;0.80;;;;;;;13.50;74.31;101450.97;4950291;29;20423;-64
2022/09/17 10:09:10;;;;;;;2.35;0.80;;;;;;;13.61;75.06;101450.38;4950497;29;20039;-64
2022/09/17 10:11:36;;;;;;;5.45;1.05;;;;;;;13.81;72.57;101443.22;4950392;29;20045;-65
2022/09/17 10:14:20;;;;;;;7.75;0.73;;;;;;;14.01;73.68;101450.47;4950670;29;20051;-64
2022/09/17 10:16:45;;;;;;;4.10;0.63;;;;;;;13.97;73.88;101446.53;4939281;28;20042;-64
2022/09/17 10:19:17;;;;;;;1.55;0.50;;;;;;;13.94;72.45;101445.09;4917882;28;20459;-64
2022/09/17 10:21:43;;;;;;;9.57;2.55;;;;;;;13.92;71.49;101435.59;4935586;28;20027;-64
2022/09/17 10:24:30;;;;;;;3.10;0.82;;;;;;;14.10;74.16;101441.19;4936410;28;20399;-65
2022/09/17 10:27:13;;;;;;;0.50;0.50;;;;;;;14.12;71.19;101433.78;4934496;28;20019;-65
2022/09/17 10:29:48;;;;;;;4.60;0.80;;;;;;;14.20;72.29;101433.56;4936110;28;20012;-65
2022/09/17 10:32:21;;;;;;;7.07;1.02;;;;;;;14.20;72.37;101438.09;4935910;28;20042;-66
2022/09/17 10:34:59;;;;;;;2.55;0.75;;;;;;;14.13;69.36;101431.91;4936006;28;20030;-65
2022/09/17 10:37:44;;;;;;;3.92;0.85;;;;;;;14.25;72.64;101435.59;4935402;28;20430;-65
2022/09/17 10:40:19;;;;;;;4.68;0.60;;;;;;;14.41;72.42;101432.53;4936368;28;21061;-68
2022/09/17 10:43:15;;;;;;;5.10;0.73;;;;;;;14.51;72.78;101431.25;4935518;28;20574;-64
2022/09/17 10:45:44;;;;;;;4.18;0.43;;;;;;;14.43;71.74;101438.50;4936628;28;20033;-65
2022/09/17 10:48:19;;;;;;;10.35;2.05;;;;;;;14.34;71.64;101429.00;4935400;28;20035;-63
2022/09/17 10:50:52;;;;;;;2.53;0.70;;;;;;;14.37;72.37;101433.16;4936002;28;20040;-64
2022/09/17 10:53:22;;;;;;;2.33;0.50;;;;;;;14.38;69.79;101435.63;4935818;28;20031;-66
2022/09/17 10:56:10;;;;;;;0.52;0.35;;;;;;;14.36;69.90;101435.00;4935523;28;20139;-65
2022/09/17 10:59:03;;;;;;;3.10;0.80;;;;;;;14.41;71.53;101432.53;4938685;28;20471;-65
2022/09/17 11:01:53;;;;;;;5.05;1.30;;;;;;;14.58;72.55;101419.50;4938637;28;20122;-66
2022/09/17 11:04:49;;;;;;;2.47;1.05;;;;;;;14.73;71.17;101421.97;4939664;28;20027;-66
2022/09/17 11:07:50;;;;;;;0.70;0.28;;;;;;;14.79;71.69;101421.13;4918642;29;20047;-67
2022/09/17 11:10:30;;;;;;;1.65;0.32;;;;;;;14.81;69.92;101423.63;4948945;29;20081;-67
2022/09/17 11:13:19;;;;;;;1.70;0.50;;;;;;;14.86;67.90;101411.19;4942043;29;20043;-67
2022/09/17 11:16:11;;;;;;;0.60;0.40;;;;;;;14.87;69.66;101407.47;4953059;29;20065;-67
2022/09/17 11:18:44;;;;;;;;;;;;;;;15.01;71.72;101402.91;4952893;29;20524;-67
2022/09/17 11:21:33;;;;;;;4.75;0.77;;;;;;;15.04;68.32;101407.84;4952868;29;20005;-67
2022/09/17 11:24:19;;;;;;;1.52;0.77;;;;;;;15.01;68.28;101402.03;4953032;29;20027;-67
2022/09/17 11:27:00;;;;;;;2.88;0.98;;;;;;;14.83;69.95;101392.81;4934373;29;20585;-66
2022/09/17 11:29:43;;;;;;;0.88;0.60;;;;;;;14.80;68.00;101408.53;4934890;29;20024;-67
2022/09/17 11:32:19;;;;;;;1.75;0.60;;;;;;;14.94;69.28;101414.69;4934380;29;20046;-66
2022/09/17 11:34:49;;;;;;;6.20;0.98;;;;;;;15.03;68.30;101411.53;4934403;29;20027;-66
2022/09/17 11:37:42;;;;;;;2.78;0.90;;;;;;;15.08;68.45;101409.03;4934348;29;20432;-66
2022/09/17 11:40:07;;;;;;;2.78;0.88;;;;;;;15.07;64.59;101406.59;4952606;28;20042;-66